sensor_id;sensor_type;location;lat;lon;timestamp;temperature;humidity
23291;DHT22;11814;44.686;10.842;2023-06-22T00:01:56;26.80;99.90
23291;DHT22;11814;44.686;10.842;2023-06-22T00:04:22;26.70;99.90
23291;DHT22;11814;44.686;10.842;2023-06-22T00:06:48;26.80;99.90
23291;DHT22;11814;44.686;10.842;2023-06-22T00:09:13;26.70;99.90
23291;DHT22;11814;44.686;10.842;2023-06-22T00:11:39;26.70;99.90
23291;DHT22;11814;44.686;10.842;2023-06-22T00:14:05;26.70;99.90
23291;DHT22;11814;44.686;10.842;2023-06-22T00:16:34;26.80;99.90
23291;DHT22;11814;44.686;10.842;2023-06-22T00:19:00;26.80;99.90
23291;DHT22;11814;44.686;10.842;2023-06-22T00:21:27;26.80;99.90
23291;DHT22;11814;44.686;10.842;2023-06-22T00:23:53;26.80;99.90
23291;DHT22;11814;44.686;10.842;2023-06-22T00:26:20;26.80;99.90
23291;DHT22;11814;44.686;10.842;2023-06-22T00:28:46;26.80;99.90
23291;DHT22;11814;44.686;10.842;2023-06-22T00:31:12;26.80;99.90
23291;DHT22;11814;44.686;10.842;2023-06-22T00:33:38;26.70;99.90
23291;DHT22;11814;44.686;10.842;2023-06-22T00:36:05;26.70;99.90
23291;DHT22;11814;44.686;10.842;2023-06-22T00:38:31;26.70;99.90
23291;DHT22;11814;44.686;10.842;2023-06-22T00:40:57;26.70;99.90
23291;DHT22;11814;44.686;10.842;2023-06-22T00:43:23;26.70;99.90
23291;DHT22;11814;44.686;10.842;2023-06-22T00:45:48;26.70;99.90
23291;DHT22;11814;44.686;10.842;2023-06-22T00:48:14;26.60;99.90
23291;DHT22;11814;44.686;10.842;2023-06-22T00:50:40;26.50;99.90
23291;DHT22;11814;44.686;10.842;2023-06-22T00:53:08;26.50;99.90
23291;DHT22;11814;44.686;10.842;2023-06-22T00:55:39;26.50;99.90
23291;DHT22;11814;44.686;10.842;2023-06-22T00:58:09;26.50;99.90
23291;DHT22;11814;44.686;10.842;2023-06-22T01:00:37;26.50;99.90
23291;DHT22;11814;44.686;10.842;2023-06-22T01:03:03;26.50;99.90
23291;DHT22;11814;44.686;10.842;2023-06-22T01:05:31;26.50;99.90
23291;DHT22;11814;44.686;10.842;2023-06-22T01:08:49;26.40;99.90
23291;DHT22;11814;44.686;10.842;2023-06-22T01:11:20;26.40;99.90
23291;DHT22;11814;44.686;10.842;2023-06-22T01:13:51;26.40;99.90
23291;DHT22;11814;44.686;10.842;2023-06-22T01:16:24;26.50;99.90
23291;DHT22;11814;44.686;10.842;2023-06-22T01:18:53;26.50;99.90
23291;DHT22;11814;44.686;10.842;2023-06-22T01:21:22;26.50;99.90
23291;DHT22;11814;44.686;10.842;2023-06-22T01:24:01;26.40;99.90
23291;DHT22;11814;44.686;10.842;2023-06-22T01:29:08;26.40;99.90
23291;DHT22;11814;44.686;10.842;2023-06-22T01:31:38;26.30;99.90
23291;DHT22;11814;44.686;10.842;2023-06-22T01:34:06;26.20;99.90
23291;DHT22;11814;44.686;10.842;2023-06-22T01:36:34;26.20;99.90
23291;DHT22;11814;44.686;10.842;2023-06-22T01:39:00;26.10;99.90
23291;DHT22;11814;44.686;10.842;2023-06-22T01:41:29;26.10;99.90
23291;DHT22;11814;44.686;10.842;2023-06-22T01:43:56;26.10;99.90
23291;DHT22;11814;44.686;10.842;2023-06-22T01:46:22;26.00;99.90
23291;DHT22;11814;44.686;10.842;2023-06-22T01:48:48;26.00;99.90
23291;DHT22;11814;44.686;10.842;2023-06-22T01:51:15;26.10;99.90
23291;DHT22;11814;44.686;10.842;2023-06-22T01:53:41;26.00;99.90
23291;DHT22;11814;44.686;10.842;2023-06-22T01:56:08;26.00;99.90
23291;DHT22;11814;44.686;10.842;2023-06-22T01:58:34;26.00;99.90
23291;DHT22;11814;44.686;10.842;2023-06-22T02:01:11;25.90;99.90
23291;DHT22;11814;44.686;10.842;2023-06-22T02:03:41;25.90;99.90
23291;DHT22;11814;44.686;10.842;2023-06-22T02:06:13;26.00;99.90
23291;DHT22;11814;44.686;10.842;2023-06-22T02:08:46;25.90;99.90
23291;DHT22;11814;44.686;10.842;2023-06-22T02:11:13;25.80;99.90
23291;DHT22;11814;44.686;10.842;2023-06-22T02:13:40;25.70;99.90
23291;DHT22;11814;44.686;10.842;2023-06-22T02:16:11;25.70;99.90
23291;DHT22;11814;44.686;10.842;2023-06-22T02:18:38;25.70;99.90
23291;DHT22;11814;44.686;10.842;2023-06-22T02:21:06;25.60;99.90
23291;DHT22;11814;44.686;10.842;2023-06-22T02:23:32;25.70;99.90
23291;DHT22;11814;44.686;10.842;2023-06-22T02:26:02;25.70;99.90
23291;DHT22;11814;44.686;10.842;2023-06-22T02:28:28;25.60;99.90
23291;DHT22;11814;44.686;10.842;2023-06-22T02:30:53;25.60;99.90
23291;DHT22;11814;44.686;10.842;2023-06-22T02:33:19;25.60;99.90
23291;DHT22;11814;44.686;10.842;2023-06-22T02:35:45;25.60;99.90
23291;DHT22;11814;44.686;10.842;2023-06-22T02:38:13;25.60;99.90
23291;DHT22;11814;44.686;10.842;2023-06-22T02:40:39;25.60;99.90
23291;DHT22;11814;44.686;10.842;2023-06-22T02:43:05;25.60;99.90
23291;DHT22;11814;44.686;10.842;2023-06-22T02:45:31;25.50;99.90
23291;DHT22;11814;44.686;10.842;2023-06-22T02:47:57;25.40;99.90
23291;DHT22;11814;44.686;10.842;2023-06-22T02:50:23;25.40;99.90
23291;DHT22;11814;44.686;10.842;2023-06-22T02:52:48;25.40;99.90
23291;DHT22;11814;44.686;10.842;2023-06-22T02:55:14;25.30;99.90
23291;DHT22;11814;44.686;10.842;2023-06-22T02:57:40;25.30;99.90
23291;DHT22;11814;44.686;10.842;2023-06-22T03:00:09;25.20;99.90
23291;DHT22;11814;44.686;10.842;2023-06-22T03:02:44;25.30;99.90
23291;DHT22;11814;44.686;10.842;2023-06-22T03:05:10;25.30;99.90
23291;DHT22;11814;44.686;10.842;2023-06-22T03:07:41;25.30;99.90
23291;DHT22;11814;44.686;10.842;2023-06-22T03:10:11;25.30;99.90
23291;DHT22;11814;44.686;10.842;2023-06-22T03:12:38;25.30;99.90
23291;DHT22;11814;44.686;10.842;2023-06-22T03:15:08;25.20;99.90
23291;DHT22;11814;44.686;10.842;2023-06-22T03:17:35;25.30;99.90
23291;DHT22;11814;44.686;10.842;2023-06-22T03:20:04;25.30;99.90
23291;DHT22;11814;44.686;10.842;2023-06-22T03:22:35;25.20;99.90
23291;DHT22;11814;44.686;10.842;2023-06-22T03:25:01;25.30;99.90
23291;DHT22;11814;44.686;10.842;2023-06-22T03:27:27;25.20;99.90
23291;DHT22;11814;44.686;10.842;2023-06-22T03:29:53;25.20;99.90
23291;DHT22;11814;44.686;10.842;2023-06-22T03:32:18;25.20;99.90
23291;DHT22;11814;44.686;10.842;2023-06-22T03:34:44;25.20;99.90
23291;DHT22;11814;44.686;10.842;2023-06-22T03:37:15;25.20;99.90
23291;DHT22;11814;44.686;10.842;2023-06-22T03:39:41;25.20;99.90
23291;DHT22;11814;44.686;10.842;2023-06-22T03:42:07;25.20;99.90
23291;DHT22;11814;44.686;10.842;2023-06-22T03:44:34;25.20;99.90
23291;DHT22;11814;44.686;10.842;2023-06-22T03:47:02;25.10;99.90
23291;DHT22;11814;44.686;10.842;2023-06-22T03:49:28;25.10;99.90
23291;DHT22;11814;44.686;10.842;2023-06-22T03:51:54;25.10;99.90
23291;DHT22;11814;44.686;10.842;2023-06-22T03:54:19;25.10;99.90
23291;DHT22;11814;44.686;10.842;2023-06-22T03:56:45;25.10;99.90
23291;DHT22;11814;44.686;10.842;2023-06-22T03:59:10;25.10;99.90
23291;DHT22;11814;44.686;10.842;2023-06-22T04:01:36;25.10;99.90
23291;DHT22;11814;44.686;10.842;2023-06-22T04:04:02;25.10;99.90
23291;DHT22;11814;44.686;10.842;2023-06-22T04:06:28;25.10;99.90
23291;DHT22;11814;44.686;10.842;2023-06-22T04:08:53;25.10;99.90
23291;DHT22;11814;44.686;10.842;2023-06-22T04:11:19;25.10;99.90
23291;DHT22;11814;44.686;10.842;2023-06-22T04:13:45;25.20;99.90
23291;DHT22;11814;44.686;10.842;2023-06-22T04:16:10;25.20;99.90
23291;DHT22;11814;44.686;10.842;2023-06-22T04:18:36;25.20;99.90
23291;DHT22;11814;44.686;10.842;2023-06-22T04:21:02;25.20;99.90
23291;DHT22;11814;44.686;10.842;2023-06-22T04:23:28;25.10;99.90
23291;DHT22;11814;44.686;10.842;2023-06-22T04:25:54;25.20;99.90
23291;DHT22;11814;44.686;10.842;2023-06-22T04:28:22;25.20;99.90
23291;DHT22;11814;44.686;10.842;2023-06-22T04:30:47;25.20;99.90
23291;DHT22;11814;44.686;10.842;2023-06-22T04:33:16;25.20;99.90
23291;DHT22;11814;44.686;10.842;2023-06-22T04:35:45;25.20;99.90
23291;DHT22;11814;44.686;10.842;2023-06-22T04:38:12;25.30;99.90
23291;DHT22;11814;44.686;10.842;2023-06-22T04:40:39;25.40;99.90
23291;DHT22;11814;44.686;10.842;2023-06-22T04:43:05;25.40;99.90
23291;DHT22;11814;44.686;10.842;2023-06-22T04:45:32;25.40;99.90
23291;DHT22;11814;44.686;10.842;2023-06-22T04:47:59;25.40;99.90
23291;DHT22;11814;44.686;10.842;2023-06-22T04:50:24;25.40;99.90
23291;DHT22;11814;44.686;10.842;2023-06-22T04:52:50;25.50;99.90
23291;DHT22;11814;44.686;10.842;2023-06-22T04:55:17;25.50;99.90
23291;DHT22;11814;44.686;10.842;2023-06-22T04:57:47;25.60;99.90
23291;DHT22;11814;44.686;10.842;2023-06-22T05:00:19;25.70;99.90
23291;DHT22;11814;44.686;10.842;2023-06-22T05:02:48;25.70;99.90
23291;DHT22;11814;44.686;10.842;2023-06-22T05:05:15;25.80;99.90
23291;DHT22;11814;44.686;10.842;2023-06-22T05:07:47;25.80;99.90
23291;DHT22;11814;44.686;10.842;2023-06-22T05:10:16;25.90;99.90
23291;DHT22;11814;44.686;10.842;2023-06-22T05:12:42;25.90;99.90
23291;DHT22;11814;44.686;10.842;2023-06-22T05:15:08;26.00;99.90
23291;DHT22;11814;44.686;10.842;2023-06-22T05:17:35;26.10;99.90
23291;DHT22;11814;44.686;10.842;2023-06-22T05:20:01;26.10;99.90
23291;DHT22;11814;44.686;10.842;2023-06-22T05:22:28;26.20;99.90
23291;DHT22;11814;44.686;10.842;2023-06-22T05:24:53;26.30;99.90
23291;DHT22;11814;44.686;10.842;2023-06-22T05:27:19;26.40;99.90
23291;DHT22;11814;44.686;10.842;2023-06-22T05:29:45;26.50;99.90
23291;DHT22;11814;44.686;10.842;2023-06-22T05:32:10;26.50;99.90
23291;DHT22;11814;44.686;10.842;2023-06-22T05:34:36;26.60;99.90
23291;DHT22;11814;44.686;10.842;2023-06-22T05:37:02;26.70;99.90
23291;DHT22;11814;44.686;10.842;2023-06-22T05:39:28;26.80;99.90
23291;DHT22;11814;44.686;10.842;2023-06-22T05:41:54;26.90;99.90
23291;DHT22;11814;44.686;10.842;2023-06-22T05:44:20;27.00;99.90
23291;DHT22;11814;44.686;10.842;2023-06-22T05:46:46;27.00;99.90
23291;DHT22;11814;44.686;10.842;2023-06-22T05:49:13;27.00;99.90
23291;DHT22;11814;44.686;10.842;2023-06-22T05:51:40;27.10;99.90
23291;DHT22;11814;44.686;10.842;2023-06-22T05:54:06;27.10;99.90
23291;DHT22;11814;44.686;10.842;2023-06-22T05:56:31;27.20;99.90
23291;DHT22;11814;44.686;10.842;2023-06-22T05:58:58;27.30;99.90
23291;DHT22;11814;44.686;10.842;2023-06-22T06:01:23;27.40;99.90
23291;DHT22;11814;44.686;10.842;2023-06-22T06:03:51;27.50;99.90
23291;DHT22;11814;44.686;10.842;2023-06-22T06:06:18;27.50;99.80
23291;DHT22;11814;44.686;10.842;2023-06-22T06:08:45;27.60;99.40
23291;DHT22;11814;44.686;10.842;2023-06-22T06:11:11;27.60;98.60
23291;DHT22;11814;44.686;10.842;2023-06-22T06:13:36;27.60;97.70
23291;DHT22;11814;44.686;10.842;2023-06-22T06:16:02;27.60;97.30
23291;DHT22;11814;44.686;10.842;2023-06-22T06:18:28;27.70;97.00
23291;DHT22;11814;44.686;10.842;2023-06-22T06:20:54;27.80;96.60
23291;DHT22;11814;44.686;10.842;2023-06-22T06:23:19;28.00;95.80
23291;DHT22;11814;44.686;10.842;2023-06-22T06:25:45;28.20;95.20
23291;DHT22;11814;44.686;10.842;2023-06-22T06:28:11;28.40;94.40
23291;DHT22;11814;44.686;10.842;2023-06-22T06:30:36;28.50;93.60
23291;DHT22;11814;44.686;10.842;2023-06-22T06:33:03;28.70;92.90
23291;DHT22;11814;44.686;10.842;2023-06-22T06:35:30;28.70;92.20
23291;DHT22;11814;44.686;10.842;2023-06-22T06:37:55;28.90;92.00
23291;DHT22;11814;44.686;10.842;2023-06-22T06:40:22;29.20;91.60
23291;DHT22;11814;44.686;10.842;2023-06-22T06:42:48;29.40;90.60
23291;DHT22;11814;44.686;10.842;2023-06-22T06:45:19;29.70;89.40
23291;DHT22;11814;44.686;10.842;2023-06-22T06:47:47;29.70;87.20
23291;DHT22;11814;44.686;10.842;2023-06-22T06:50:14;29.70;85.50
23291;DHT22;11814;44.686;10.842;2023-06-22T06:52:40;29.70;84.20
23291;DHT22;11814;44.686;10.842;2023-06-22T06:55:06;29.80;82.60
23291;DHT22;11814;44.686;10.842;2023-06-22T06:57:34;29.90;81.00
23291;DHT22;11814;44.686;10.842;2023-06-22T07:00:00;29.90;80.70
23291;DHT22;11814;44.686;10.842;2023-06-22T07:02:26;29.90;80.50
23291;DHT22;11814;44.686;10.842;2023-06-22T07:04:53;29.90;80.10
23291;DHT22;11814;44.686;10.842;2023-06-22T07:07:21;29.90;79.40
23291;DHT22;11814;44.686;10.842;2023-06-22T07:09:47;30.00;78.70
23291;DHT22;11814;44.686;10.842;2023-06-22T07:12:12;30.10;78.40
23291;DHT22;11814;44.686;10.842;2023-06-22T07:14:38;30.20;78.20
23291;DHT22;11814;44.686;10.842;2023-06-22T07:17:04;30.30;77.50
23291;DHT22;11814;44.686;10.842;2023-06-22T07:19:30;30.40;76.80
23291;DHT22;11814;44.686;10.842;2023-06-22T07:21:56;30.60;76.20
23291;DHT22;11814;44.686;10.842;2023-06-22T07:24:23;30.90;75.00
23291;DHT22;11814;44.686;10.842;2023-06-22T07:26:50;31.20;74.30
23291;DHT22;11814;44.686;10.842;2023-06-22T07:29:19;31.40;73.30
23291;DHT22;11814;44.686;10.842;2023-06-22T07:31:49;31.50;72.50
23291;DHT22;11814;44.686;10.842;2023-06-22T07:34:16;31.60;72.20
23291;DHT22;11814;44.686;10.842;2023-06-22T07:36:43;31.50;72.00
23291;DHT22;11814;44.686;10.842;2023-06-22T07:39:09;31.50;71.90
23291;DHT22;11814;44.686;10.842;2023-06-22T07:41:35;31.40;71.60
23291;DHT22;11814;44.686;10.842;2023-06-22T07:44:02;31.40;71.70
23291;DHT22;11814;44.686;10.842;2023-06-22T07:46:28;31.30;71.60
23291;DHT22;11814;44.686;10.842;2023-06-22T07:48:56;31.30;71.20
23291;DHT22;11814;44.686;10.842;2023-06-22T07:51:22;31.30;71.80
23291;DHT22;11814;44.686;10.842;2023-06-22T07:53:48;31.30;72.40
23291;DHT22;11814;44.686;10.842;2023-06-22T07:56:14;31.30;71.80
23291;DHT22;11814;44.686;10.842;2023-06-22T07:58:44;31.30;71.90
23291;DHT22;11814;44.686;10.842;2023-06-22T08:01:10;31.20;72.40
23291;DHT22;11814;44.686;10.842;2023-06-22T08:03:36;31.20;73.20
23291;DHT22;11814;44.686;10.842;2023-06-22T08:06:02;31.20;73.90
23291;DHT22;11814;44.686;10.842;2023-06-22T08:08:28;31.20;74.20
23291;DHT22;11814;44.686;10.842;2023-06-22T08:10:54;31.30;74.20
23291;DHT22;11814;44.686;10.842;2023-06-22T08:13:20;31.30;73.70
23291;DHT22;11814;44.686;10.842;2023-06-22T08:15:45;31.30;73.50
23291;DHT22;11814;44.686;10.842;2023-06-22T08:18:11;31.40;72.90
23291;DHT22;11814;44.686;10.842;2023-06-22T08:20:37;31.40;72.10
23291;DHT22;11814;44.686;10.842;2023-06-22T08:23:02;31.40;71.80
23291;DHT22;11814;44.686;10.842;2023-06-22T08:25:34;31.30;71.30
23291;DHT22;11814;44.686;10.842;2023-06-22T08:28:02;31.30;70.80
23291;DHT22;11814;44.686;10.842;2023-06-22T08:30:27;31.30;70.60
23291;DHT22;11814;44.686;10.842;2023-06-22T08:32:53;31.30;70.60
23291;DHT22;11814;44.686;10.842;2023-06-22T08:35:21;31.40;70.80
23291;DHT22;11814;44.686;10.842;2023-06-22T08:37:47;31.40;70.60
23291;DHT22;11814;44.686;10.842;2023-06-22T08:40:18;31.40;70.40
23291;DHT22;11814;44.686;10.842;2023-06-22T08:42:45;31.40;70.20
23291;DHT22;11814;44.686;10.842;2023-06-22T08:45:12;31.40;70.10
23291;DHT22;11814;44.686;10.842;2023-06-22T08:47:38;31.50;70.30
23291;DHT22;11814;44.686;10.842;2023-06-22T08:50:05;31.60;70.00
23291;DHT22;11814;44.686;10.842;2023-06-22T08:52:32;31.60;69.80
23291;DHT22;11814;44.686;10.842;2023-06-22T08:54:57;31.60;69.90
23291;DHT22;11814;44.686;10.842;2023-06-22T08:57:29;31.70;69.60
23291;DHT22;11814;44.686;10.842;2023-06-22T08:59:55;31.70;68.70
23291;DHT22;11814;44.686;10.842;2023-06-22T09:02:26;31.80;68.30
23291;DHT22;11814;44.686;10.842;2023-06-22T09:04:59;31.80;68.40
23291;DHT22;11814;44.686;10.842;2023-06-22T09:07:24;31.90;68.30
23291;DHT22;11814;44.686;10.842;2023-06-22T09:09:51;32.00;67.90
23291;DHT22;11814;44.686;10.842;2023-06-22T09:12:18;32.10;68.00
23291;DHT22;11814;44.686;10.842;2023-06-22T09:14:45;32.10;67.90
23291;DHT22;11814;44.686;10.842;2023-06-22T09:17:12;32.10;67.70
23291;DHT22;11814;44.686;10.842;2023-06-22T09:19:38;32.10;67.70
23291;DHT22;11814;44.686;10.842;2023-06-22T09:22:04;32.10;67.30
23291;DHT22;11814;44.686;10.842;2023-06-22T09:24:31;32.10;67.30
23291;DHT22;11814;44.686;10.842;2023-06-22T09:26:57;32.10;67.40
23291;DHT22;11814;44.686;10.842;2023-06-22T09:29:22;32.20;67.10
23291;DHT22;11814;44.686;10.842;2023-06-22T09:31:48;32.30;67.30
23291;DHT22;11814;44.686;10.842;2023-06-22T09:34:13;32.30;67.20
23291;DHT22;11814;44.686;10.842;2023-06-22T09:36:41;32.40;67.20
23291;DHT22;11814;44.686;10.842;2023-06-22T09:39:06;32.40;67.30
23291;DHT22;11814;44.686;10.842;2023-06-22T09:41:32;32.30;66.80
23291;DHT22;11814;44.686;10.842;2023-06-22T09:43:58;32.40;66.50
23291;DHT22;11814;44.686;10.842;2023-06-22T09:46:23;32.50;66.20
23291;DHT22;11814;44.686;10.842;2023-06-22T09:48:52;32.60;66.50
23291;DHT22;11814;44.686;10.842;2023-06-22T09:51:17;32.70;66.50
23291;DHT22;11814;44.686;10.842;2023-06-22T09:53:45;32.70;66.00
23291;DHT22;11814;44.686;10.842;2023-06-22T09:56:10;32.70;65.70
23291;DHT22;11814;44.686;10.842;2023-06-22T09:58:43;32.80;66.10
23291;DHT22;11814;44.686;10.842;2023-06-22T10:01:10;32.80;66.00
23291;DHT22;11814;44.686;10.842;2023-06-22T10:03:36;32.80;66.30
23291;DHT22;11814;44.686;10.842;2023-06-22T10:06:03;32.80;66.70
23291;DHT22;11814;44.686;10.842;2023-06-22T10:08:28;32.80;66.80
23291;DHT22;11814;44.686;10.842;2023-06-22T10:10:54;32.80;66.40
23291;DHT22;11814;44.686;10.842;2023-06-22T10:13:20;32.80;66.00
23291;DHT22;11814;44.686;10.842;2023-06-22T10:15:45;32.80;66.60
23291;DHT22;11814;44.686;10.842;2023-06-22T10:18:17;32.80;66.60
23291;DHT22;11814;44.686;10.842;2023-06-22T10:20:43;32.90;65.70
23291;DHT22;11814;44.686;10.842;2023-06-22T10:23:09;33.00;64.50
23291;DHT22;11814;44.686;10.842;2023-06-22T10:25:34;32.90;64.50
23291;DHT22;11814;44.686;10.842;2023-06-22T10:28:00;32.90;65.10
23291;DHT22;11814;44.686;10.842;2023-06-22T10:30:26;32.90;65.00
23291;DHT22;11814;44.686;10.842;2023-06-22T10:32:51;33.00;65.10
23291;DHT22;11814;44.686;10.842;2023-06-22T10:35:17;33.00;65.10
23291;DHT22;11814;44.686;10.842;2023-06-22T10:37:46;33.00;64.60
23291;DHT22;11814;44.686;10.842;2023-06-22T10:40:13;33.10;63.40
23291;DHT22;11814;44.686;10.842;2023-06-22T10:42:39;33.20;61.80
23291;DHT22;11814;44.686;10.842;2023-06-22T10:45:05;33.20;61.30
23291;DHT22;11814;44.686;10.842;2023-06-22T10:47:31;33.20;61.00
23291;DHT22;11814;44.686;10.842;2023-06-22T10:49:56;33.30;61.10
23291;DHT22;11814;44.686;10.842;2023-06-22T10:52:22;33.40;61.20
23291;DHT22;11814;44.686;10.842;2023-06-22T10:54:48;33.40;60.80
23291;DHT22;11814;44.686;10.842;2023-06-22T10:57:13;33.40;61.00
23291;DHT22;11814;44.686;10.842;2023-06-22T10:59:39;33.40;62.20
23291;DHT22;11814;44.686;10.842;2023-06-22T11:02:05;33.40;62.80
23291;DHT22;11814;44.686;10.842;2023-06-22T11:04:31;33.50;63.10
23291;DHT22;11814;44.686;10.842;2023-06-22T11:06:56;33.40;63.30
23291;DHT22;11814;44.686;10.842;2023-06-22T11:09:22;33.40;63.90
23291;DHT22;11814;44.686;10.842;2023-06-22T11:11:49;33.40;64.20
23291;DHT22;11814;44.686;10.842;2023-06-22T11:14:14;33.50;64.70
23291;DHT22;11814;44.686;10.842;2023-06-22T11:16:40;33.60;64.40
23291;DHT22;11814;44.686;10.842;2023-06-22T11:19:06;33.70;63.90
23291;DHT22;11814;44.686;10.842;2023-06-22T11:21:32;33.80;63.80
23291;DHT22;11814;44.686;10.842;2023-06-22T11:23:58;33.80;63.60
23291;DHT22;11814;44.686;10.842;2023-06-22T11:26:25;33.80;63.10
23291;DHT22;11814;44.686;10.842;2023-06-22T11:28:53;33.80;62.80
23291;DHT22;11814;44.686;10.842;2023-06-22T11:31:18;33.80;62.90
23291;DHT22;11814;44.686;10.842;2023-06-22T11:33:44;33.90;63.00
23291;DHT22;11814;44.686;10.842;2023-06-22T11:36:11;33.90;62.90
23291;DHT22;11814;44.686;10.842;2023-06-22T11:38:37;34.00;62.90
23291;DHT22;11814;44.686;10.842;2023-06-22T11:41:05;34.00;62.80
23291;DHT22;11814;44.686;10.842;2023-06-22T11:43:31;34.10;62.50
23291;DHT22;11814;44.686;10.842;2023-06-22T11:45:57;34.10;62.30
23291;DHT22;11814;44.686;10.842;2023-06-22T11:48:24;34.10;61.70
23291;DHT22;11814;44.686;10.842;2023-06-22T11:50:50;34.10;61.50
23291;DHT22;11814;44.686;10.842;2023-06-22T11:53:16;34.10;61.40
23291;DHT22;11814;44.686;10.842;2023-06-22T11:55:43;34.20;61.50
23291;DHT22;11814;44.686;10.842;2023-06-22T11:58:09;34.20;61.30
23291;DHT22;11814;44.686;10.842;2023-06-22T12:00:35;34.30;61.10
23291;DHT22;11814;44.686;10.842;2023-06-22T12:03:00;34.30;60.40
23291;DHT22;11814;44.686;10.842;2023-06-22T12:05:26;34.30;60.40
23291;DHT22;11814;44.686;10.842;2023-06-22T12:07:55;34.40;60.80
23291;DHT22;11814;44.686;10.842;2023-06-22T12:10:25;34.40;61.60
23291;DHT22;11814;44.686;10.842;2023-06-22T12:12:51;34.40;61.90
23291;DHT22;11814;44.686;10.842;2023-06-22T12:15:17;34.50;62.30
23291;DHT22;11814;44.686;10.842;2023-06-22T12:17:42;34.50;63.00
23291;DHT22;11814;44.686;10.842;2023-06-22T12:20:09;34.50;64.30
23291;DHT22;11814;44.686;10.842;2023-06-22T12:22:35;34.50;63.00
23291;DHT22;11814;44.686;10.842;2023-06-22T12:25:03;34.60;63.10
23291;DHT22;11814;44.686;10.842;2023-06-22T12:27:29;34.60;62.90
23291;DHT22;11814;44.686;10.842;2023-06-22T12:29:56;34.60;63.10
23291;DHT22;11814;44.686;10.842;2023-06-22T12:32:22;34.60;63.20
23291;DHT22;11814;44.686;10.842;2023-06-22T12:34:47;34.60;62.80
23291;DHT22;11814;44.686;10.842;2023-06-22T12:37:13;34.50;63.00
23291;DHT22;11814;44.686;10.842;2023-06-22T12:39:41;34.50;63.30
23291;DHT22;11814;44.686;10.842;2023-06-22T12:42:07;34.40;63.70
23291;DHT22;11814;44.686;10.842;2023-06-22T12:44:34;34.30;64.00
23291;DHT22;11814;44.686;10.842;2023-06-22T12:47:00;34.30;63.30
23291;DHT22;11814;44.686;10.842;2023-06-22T12:49:26;34.40;62.80
23291;DHT22;11814;44.686;10.842;2023-06-22T12:51:51;34.50;62.80
23291;DHT22;11814;44.686;10.842;2023-06-22T12:54:17;34.50;62.40
23291;DHT22;11814;44.686;10.842;2023-06-22T12:56:43;34.50;62.20
23291;DHT22;11814;44.686;10.842;2023-06-22T12:59:10;34.70;62.90
23291;DHT22;11814;44.686;10.842;2023-06-22T13:01:36;34.80;62.60
23291;DHT22;11814;44.686;10.842;2023-06-22T13:04:02;34.80;62.10
23291;DHT22;11814;44.686;10.842;2023-06-22T13:06:28;34.90;61.90
23291;DHT22;11814;44.686;10.842;2023-06-22T13:08:54;34.90;61.50
23291;DHT22;11814;44.686;10.842;2023-06-22T13:11:20;34.90;61.20
23291;DHT22;11814;44.686;10.842;2023-06-22T13:13:46;34.90;61.30
23291;DHT22;11814;44.686;10.842;2023-06-22T13:16:12;34.80;61.00
23291;DHT22;11814;44.686;10.842;2023-06-22T13:18:37;35.00;60.10
23291;DHT22;11814;44.686;10.842;2023-06-22T13:21:04;35.00;60.40
23291;DHT22;11814;44.686;10.842;2023-06-22T13:23:30;35.00;59.40
23291;DHT22;11814;44.686;10.842;2023-06-22T13:25:57;35.10;59.50
23291;DHT22;11814;44.686;10.842;2023-06-22T13:28:22;35.10;59.60
23291;DHT22;11814;44.686;10.842;2023-06-22T13:30:48;35.20;59.80
23291;DHT22;11814;44.686;10.842;2023-06-22T13:33:14;35.20;59.70
23291;DHT22;11814;44.686;10.842;2023-06-22T13:35:40;35.20;59.40
23291;DHT22;11814;44.686;10.842;2023-06-22T13:38:08;35.30;59.30
23291;DHT22;11814;44.686;10.842;2023-06-22T13:40:35;35.40;59.20
23291;DHT22;11814;44.686;10.842;2023-06-22T13:43:00;35.40;58.70
23291;DHT22;11814;44.686;10.842;2023-06-22T13:45:26;35.40;58.70
23291;DHT22;11814;44.686;10.842;2023-06-22T13:47:52;35.30;58.90
23291;DHT22;11814;44.686;10.842;2023-06-22T13:50:18;35.30;59.20
23291;DHT22;11814;44.686;10.842;2023-06-22T13:52:43;35.30;59.60
23291;DHT22;11814;44.686;10.842;2023-06-22T13:55:09;35.20;59.60
23291;DHT22;11814;44.686;10.842;2023-06-22T13:57:35;35.20;59.60
23291;DHT22;11814;44.686;10.842;2023-06-22T14:00:02;35.20;59.60
23291;DHT22;11814;44.686;10.842;2023-06-22T14:02:29;35.20;59.80
23291;DHT22;11814;44.686;10.842;2023-06-22T14:04:55;35.30;59.80
23291;DHT22;11814;44.686;10.842;2023-06-22T14:07:20;35.30;60.10
23291;DHT22;11814;44.686;10.842;2023-06-22T14:09:46;35.30;59.30
23291;DHT22;11814;44.686;10.842;2023-06-22T14:12:12;35.20;59.40
23291;DHT22;11814;44.686;10.842;2023-06-22T14:14:38;35.10;59.40
23291;DHT22;11814;44.686;10.842;2023-06-22T14:17:04;35.10;59.30
23291;DHT22;11814;44.686;10.842;2023-06-22T14:19:30;35.10;59.60
23291;DHT22;11814;44.686;10.842;2023-06-22T14:21:56;35.00;59.60
23291;DHT22;11814;44.686;10.842;2023-06-22T14:24:22;34.90;59.60
23291;DHT22;11814;44.686;10.842;2023-06-22T14:26:48;34.90;59.60
23291;DHT22;11814;44.686;10.842;2023-06-22T14:29:14;34.80;59.60
23291;DHT22;11814;44.686;10.842;2023-06-22T14:31:40;34.70;60.40
23291;DHT22;11814;44.686;10.842;2023-06-22T14:34:06;34.70;60.90
23291;DHT22;11814;44.686;10.842;2023-06-22T14:36:32;34.60;60.60
23291;DHT22;11814;44.686;10.842;2023-06-22T14:38:57;34.60;60.70
23291;DHT22;11814;44.686;10.842;2023-06-22T14:41:23;34.60;60.40
23291;DHT22;11814;44.686;10.842;2023-06-22T14:43:50;34.60;60.50
23291;DHT22;11814;44.686;10.842;2023-06-22T14:46:17;34.60;61.10
23291;DHT22;11814;44.686;10.842;2023-06-22T14:48:43;34.60;61.40
23291;DHT22;11814;44.686;10.842;2023-06-22T14:51:09;34.60;60.90
23291;DHT22;11814;44.686;10.842;2023-06-22T14:53:36;34.60;60.30
23291;DHT22;11814;44.686;10.842;2023-06-22T14:56:02;34.60;60.60
23291;DHT22;11814;44.686;10.842;2023-06-22T14:58:32;34.40;60.20
23291;DHT22;11814;44.686;10.842;2023-06-22T15:01:04;34.40;60.00
23291;DHT22;11814;44.686;10.842;2023-06-22T15:03:34;34.50;59.70
23291;DHT22;11814;44.686;10.842;2023-06-22T15:06:01;34.40;59.20
23291;DHT22;11814;44.686;10.842;2023-06-22T15:08:27;34.40;59.70
23291;DHT22;11814;44.686;10.842;2023-06-22T15:10:53;34.30;59.90
23291;DHT22;11814;44.686;10.842;2023-06-22T15:13:19;34.30;59.70
23291;DHT22;11814;44.686;10.842;2023-06-22T15:15:48;34.20;59.30